Hauptseite
METAR-TAF:

METAR-TAF

Flughäfen :

Porto Alegre, Rio Grande do Sul, Brasilien

Breite: 30-01S, Länge: 051-13W, Höhe: 47 m

Beobachtung

Neuester Wetterbericht von vor 40 Minuten, um 18:00 UTC
Wind 5 kt aus Ost/Südost
Temperatur 23°C
Luftfeuchtigkeit 73%
Luftdruck 1009 hPa
Sichtweite 10 km oder mehr
Durchbrochene Bewölkung in der Höhe von 4200 ft

METAR: SBCO 181800Z 12005KT 9999 BKN042 23/18 Q1009

Zeit: 15:40 (18:40 UTC)

Prognose

Neuester Wetterbericht von vor 9 Stunden und 40 Minuten, um 09:00 UTC
Gültige Prognose vom 18 um 12 UTC bis 18 um 24 UTC
Wind 7 kt aus Ost/Südost
Sichtweite: 7000 m
Durchbrochene Bewölkung in der Höhe von 1200 ft
Übergehend zu
vom 18 um 12 UTC bis 18 um 14 UTC
Wind 6 kt aus Nord/Nordwest
Sichtweite 10 km oder mehr
Aufgelockert bewölkt in der Höhe von 3000 ft

TAF: SBCO 180900Z 1812/1824 12007KT 7000 BKN012 TX21/1817Z TN17/1823Z BECMG 1812/1814 33006KT 9999 SCT030 RMK PEC

Wetterbeobachtungen und Prognosen von mehr als 4000 Flughäfen (METAR und TAF Bericht).

Die verfügbaren Stationen werden durch gelbe und rote Markierungen auf der Karte dargestellt.

Führen Sie die Maus auf sie, um den Namen der Station zu sehen.

Darauf klicken, um die Beobachtung von Wetterbeobachtungen und Prognosen zu sehen.

Um die Karte zu ändern : klicken Sie auf den grünen Tasten mit einem schwarzen Kreuz Zum Vergrößern, auf den grünen Button mit einem Gedankenstrich zu verkleinern, oder auf die grünen Pfeile für benachbarte Karten.


METAR-TAF: